Time;durP1;ratioP1;P1;durP2;ratioP2;P2;SDS_P1;SDS_P2;PMS_P1;PMS_P2;Temp;Humidity;BMP_temperature;BMP_pressure;BME280_temperature;BME280_humidity;BME280_pressure;Samples;Min_cycle;Max_cycle;Signal;HPM_P1;HPM_P2
2024/01/15 00:02:14;;;;;;;25.70;10.65;;;-1.40;99.90;;;;;;5031975;28;20033;-76
2024/01/15 00:04:40;;;;;;;26.98;10.27;;;-1.40;99.90;;;;;;5039647;28;20030;-75
2024/01/15 00:07:10;;;;;;;22.95;10.32;;;-1.40;99.90;;;;;;5034016;28;20379;-76
2024/01/15 00:09:36;;;;;;;22.75;10.02;;;-1.50;99.90;;;;;;5055254;28;20153;-76
2024/01/15 00:12:02;;;;;;;29.67;10.80;;;-1.60;99.90;;;;;;5080655;28;20069;-76
2024/01/15 00:14:28;;;;;;;25.40;10.95;;;-1.70;99.90;;;;;;5041654;28;20025;-76
2024/01/15 00:16:55;;;;;;;26.50;11.65;;;-1.70;99.90;;;;;;5036065;28;20028;-76
2024/01/15 00:19:23;;;;;;;28.05;11.15;;;-1.80;99.90;;;;;;5036049;28;20027;-76
2024/01/15 00:21:50;;;;;;;30.00;12.35;;;-1.90;99.90;;;;;;5040777;28;20034;-76
2024/01/15 00:24:16;;;;;;;28.27;10.50;;;-1.90;99.90;;;;;;5041551;28;20128;-76
2024/01/15 00:26:42;;;;;;;25.08;11.35;;;-2.00;99.90;;;;;;5036564;28;20279;-75
2024/01/15 00:29:09;;;;;;;22.10;9.65;;;-2.10;99.90;;;;;;5033350;28;20026;-76
2024/01/15 00:31:35;;;;;;;28.88;11.10;;;-2.30;99.90;;;;;;5035537;28;20013;-76
2024/01/15 00:34:01;;;;;;;32.08;12.07;;;-2.40;99.90;;;;;;5046904;28;20029;-76
2024/01/15 00:36:27;;;;;;;29.90;11.57;;;-2.50;99.90;;;;;;5041674;28;20025;-76
2024/01/15 00:38:53;;;;;;;28.17;11.45;;;-2.60;99.90;;;;;;5048056;28;20029;-76
2024/01/15 00:41:19;;;;;;;27.45;11.40;;;-2.60;99.90;;;;;;5044878;28;20029;-76
2024/01/15 00:43:46;;;;;;;24.67;10.75;;;-2.70;99.90;;;;;;5046442;28;20031;-76
2024/01/15 00:46:12;;;;;;;25.30;10.38;;;-2.70;99.90;;;;;;5045486;28;20040;-76
2024/01/15 00:48:38;;;;;;;27.85;10.57;;;-2.70;99.90;;;;;;5032542;28;20053;-76
2024/01/15 00:51:07;;;;;;;31.77;11.60;;;-2.70;99.90;;;;;;5038767;28;20049;-76
2024/01/15 00:53:33;;;;;;;30.02;11.20;;;-2.80;99.90;;;;;;5017705;28;20040;-77
2024/01/15 00:55:59;;;;;;;25.80;10.40;;;-2.80;99.90;;;;;;5044152;28;20435;-76
2024/01/15 00:58:26;;;;;;;26.67;10.98;;;-2.80;99.90;;;;;;5043598;28;20031;-76
2024/01/15 01:00:52;;;;;;;26.75;10.02;;;-2.80;99.90;;;;;;5033842;28;20029;-76
2024/01/15 01:03:17;;;;;;;26.98;10.88;;;-2.80;99.90;;;;;;5036707;28;20037;-76
2024/01/15 01:05:44;;;;;;;26.77;10.60;;;-2.80;99.90;;;;;;5048540;28;20033;-77
2024/01/15 01:08:10;;;;;;;27.27;10.32;;;-2.70;99.90;;;;;;5044248;28;20075;-76
2024/01/15 01:10:37;;;;;;;26.85;10.25;;;-2.70;99.90;;;;;;5043497;28;20546;-76
2024/01/15 01:13:03;;;;;;;27.15;10.18;;;-2.60;99.90;;;;;;5046759;28;20394;-76
2024/01/15 01:15:29;;;;;;;30.15;10.00;;;-2.50;99.90;;;;;;5045479;28;20032;-76
2024/01/15 01:17:55;;;;;;;28.40;11.90;;;-2.40;99.90;;;;;;5038856;28;20032;-76
2024/01/15 01:20:22;;;;;;;29.05;10.90;;;-2.40;99.90;;;;;;5049693;28;20543;-76
2024/01/15 01:22:47;;;;;;;26.63;9.77;;;-2.40;99.90;;;;;;5048446;28;20075;-76
2024/01/15 01:25:13;;;;;;;25.77;9.73;;;-2.30;99.90;;;;;;5034390;28;20063;-77
2024/01/15 01:27:40;;;;;;;25.02;9.52;;;-2.20;99.90;;;;;;5037348;28;20036;-76
2024/01/15 01:30:06;;;;;;;28.65;10.40;;;-2.20;99.90;;;;;;5050487;28;20033;-76
2024/01/15 01:32:32;;;;;;;26.08;9.45;;;-2.10;99.90;;;;;;5044608;28;20258;-76
2024/01/15 01:34:59;;;;;;;28.27;10.07;;;-2.10;99.90;;;;;;5041954;28;20021;-76
2024/01/15 01:37:24;;;;;;;29.75;9.73;;;-1.90;99.90;;;;;;5039134;28;20017;-76
2024/01/15 01:39:50;;;;;;;25.83;10.63;;;-1.80;99.90;;;;;;5043441;28;20034;-78
2024/01/15 01:42:16;;;;;;;25.15;10.00;;;-1.80;99.90;;;;;;5045736;28;20033;-76
2024/01/15 01:44:42;;;;;;;31.42;10.65;;;-1.70;99.90;;;;;;5047629;28;20052;-76
2024/01/15 01:47:08;;;;;;;27.42;9.95;;;-1.60;99.90;;;;;;5039012;28;20029;-76
2024/01/15 01:49:35;;;;;;;24.00;9.75;;;-1.50;99.90;;;;;;5037578;28;20615;-75
2024/01/15 01:52:05;;;;;;;23.60;9.93;;;-1.50;99.90;;;;;;5046036;28;20021;-76
2024/01/15 01:54:32;;;;;;;29.05;10.35;;;-1.40;99.90;;;;;;5036794;28;20026;-76
2024/01/15 01:56:59;;;;;;;27.75;9.77;;;-1.40;99.90;;;;;;5049086;28;20071;-76
2024/01/15 01:59:27;;;;;;;23.52;9.98;;;-1.40;99.90;;;;;;5037130;28;20067;-76
2024/01/15 02:01:54;;;;;;;26.90;9.77;;;-1.40;99.90;;;;;;5024686;28;20044;-76
2024/01/15 02:04:21;;;;;;;27.77;10.20;;;-1.30;99.90;;;;;;5034689;28;20044;-76
2024/01/15 02:06:48;;;;;;;26.73;9.63;;;-1.30;99.90;;;;;;5035177;28;20025;-76
2024/01/15 02:09:15;;;;;;;24.20;10.65;;;-1.20;99.90;;;;;;5044351;28;20028;-77
2024/01/15 02:11:47;;;;;;;24.90;9.60;;;-1.30;99.90;;;;;;5046563;28;20446;-76
2024/01/15 02:14:13;;;;;;;24.88;9.55;;;-1.20;99.90;;;;;;5033201;28;20382;-76
2024/01/15 02:16:39;;;;;;;25.67;10.13;;;-1.20;99.90;;;;;;5044816;28;20079;-77
2024/01/15 02:19:05;;;;;;;23.83;10.10;;;-1.30;99.90;;;;;;5041425;28;20026;-77
2024/01/15 02:21:32;;;;;;;21.95;9.10;;;-1.40;99.90;;;;;;5050933;28;20045;-77
2024/01/15 02:23:59;;;;;;;21.80;9.23;;;-1.40;99.90;;;;;;5046613;28;20079;-76
2024/01/15 02:26:26;;;;;;;28.35;9.23;;;-1.40;99.90;;;;;;5037147;28;20029;-76
2024/01/15 02:28:52;;;;;;;25.67;9.40;;;-1.40;99.90;;;;;;5034454;28;20071;-76
2024/01/15 02:31:19;;;;;;;24.52;10.15;;;-1.50;99.90;;;;;;5032531;28;20423;-75
2024/01/15 02:33:48;;;;;;;25.95;9.98;;;-1.50;99.90;;;;;;5031246;28;20494;-77
2024/01/15 02:36:14;;;;;;;24.83;9.85;;;-1.60;99.90;;;;;;5043507;28;20066;-76
2024/01/15 02:38:41;;;;;;;20.90;9.40;;;-1.60;99.90;;;;;;5039162;28;20033;-75
2024/01/15 02:41:07;;;;;;;25.08;9.90;;;-1.70;99.90;;;;;;5036448;28;20025;-75
2024/01/15 02:43:33;;;;;;;25.05;10.30;;;-1.80;99.90;;;;;;5042220;28;20743;-75
2024/01/15 02:45:58;;;;;;;27.95;10.02;;;-2.00;99.90;;;;;;5037357;28;20026;-76
2024/01/15 02:48:25;;;;;;;27.38;10.90;;;-2.00;99.90;;;;;;5032024;28;20656;-76
2024/01/15 02:50:50;;;;;;;24.77;9.60;;;-2.10;99.90;;;;;;5048639;28;20121;-76
2024/01/15 02:53:16;;;;;;;25.88;9.38;;;-2.10;99.90;;;;;;5042051;28;20036;-76
2024/01/15 02:55:42;;;;;;;23.50;9.65;;;-2.10;99.90;;;;;;5033156;28;20040;-77
2024/01/15 02:58:08;;;;;;;25.13;9.10;;;-2.20;99.90;;;;;;5041382;28;20028;-76
2024/01/15 03:00:34;;;;;;;22.27;8.65;;;-2.20;99.90;;;;;;5045178;28;20045;-78
2024/01/15 03:03:01;;;;;;;25.42;9.93;;;-2.30;99.90;;;;;;5050539;28;20068;-80
2024/01/15 03:05:27;;;;;;;21.77;8.55;;;-2.40;99.90;;;;;;5035316;28;20036;-76
2024/01/15 03:07:53;;;;;;;20.38;9.00;;;-2.50;99.90;;;;;;5038122;28;20029;-76
2024/01/15 03:10:19;;;;;;;18.00;7.82;;;-2.60;99.90;;;;;;5042845;28;20029;-76
2024/01/15 03:12:45;;;;;;;23.02;9.07;;;-2.60;99.90;;;;;;5042064;28;20018;-76
2024/01/15 03:15:10;;;;;;;28.75;10.65;;;-2.60;99.90;;;;;;5041800;28;20565;-76
2024/01/15 03:17:36;;;;;;;20.50;8.50;;;-2.60;99.90;;;;;;5039181;28;20029;-76
2024/01/15 03:20:03;;;;;;;23.27;9.90;;;-2.60;99.90;;;;;;5042135;28;20036;-76
2024/01/15 03:22:28;;;;;;;25.83;9.13;;;-2.70;99.90;;;;;;5038790;28;20561;-75
2024/01/15 03:24:54;;;;;;;24.38;9.20;;;-2.70;99.90;;;;;;5036699;28;20039;-76
2024/01/15 03:27:20;;;;;;;28.10;10.43;;;-2.80;99.90;;;;;;5035006;28;20108;-76
2024/01/15 03:29:45;;;;;;;24.80;10.15;;;-2.80;99.90;;;;;;5040713;28;20013;-77
2024/01/15 03:32:11;;;;;;;22.95;9.30;;;-2.70;99.90;;;;;;5042645;28;20021;-75
2024/01/15 03:34:37;;;;;;;27.17;9.93;;;-2.60;99.90;;;;;;5046260;28;20398;-75
2024/01/15 03:37:03;;;;;;;26.38;10.40;;;-2.60;99.90;;;;;;5045060;28;20092;-75
2024/01/15 03:39:30;;;;;;;26.05;10.30;;;-2.50;99.90;;;;;;5037527;28;20048;-75
2024/01/15 03:41:56;;;;;;;24.55;9.20;;;-2.50;99.90;;;;;;5031765;28;20033;-77
2024/01/15 03:44:22;;;;;;;25.52;9.50;;;-2.50;99.90;;;;;;5040393;28;20074;-76
2024/01/15 03:46:47;;;;;;;24.63;8.98;;;-2.50;99.90;;;;;;5039233;28;20034;-76
2024/01/15 03:49:14;;;;;;;25.17;10.40;;;-2.40;99.90;;;;;;5034586;28;20474;-76
2024/01/15 03:51:40;;;;;;;24.42;9.27;;;-2.40;99.90;;;;;;5049387;28;20021;-77
2024/01/15 03:54:06;;;;;;;25.48;9.55;;;-2.40;99.90;;;;;;5046920;28;20037;-76
2024/01/15 03:56:32;;;;;;;21.48;8.52;;;-2.40;99.90;;;;;;5039863;28;20112;-76
2024/01/15 03:58:57;;;;;;;22.20;9.18;;;-2.40;99.90;;;;;;5047856;28;20025;-76
2024/01/15 04:01:23;;;;;;;23.30;9.15;;;-2.40;99.90;;;;;;5036556;28;20499;-77
2024/01/15 04:03:50;;;;;;;25.52;10.27;;;-2.40;99.90;;;;;;5041431;28;20462;-77
2024/01/15 04:06:16;;;;;;;24.45;9.20;;;-2.40;99.90;;;;;;5036708;28;20112;-77
2024/01/15 04:08:42;;;;;;;24.10;9.32;;;-2.40;99.90;;;;;;5039199;28;20109;-76
2024/01/15 04:11:07;;;;;;;25.38;9.25;;;-2.30;99.90;;;;;;5044665;28;20037;-75
2024/01/15 04:13:33;;;;;;;25.83;9.77;;;-2.20;99.90;;;;;;5039166;28;20394;-76
2024/01/15 04:16:00;;;;;;;22.50;8.88;;;-2.20;99.90;;;;;;5041372;28;20047;-76
2024/01/15 04:18:26;;;;;;;19.33;7.85;;;-2.10;99.90;;;;;;5036385;28;20033;-76
2024/01/15 04:20:52;;;;;;;23.25;8.57;;;-2.10;99.90;;;;;;5041250;28;20033;-75
2024/01/15 04:23:17;;;;;;;24.17;9.20;;;-2.10;99.90;;;;;;5039218;28;20048;-76
2024/01/15 04:25:43;;;;;;;22.88;8.80;;;-2.10;99.90;;;;;;5046756;28;20083;-76
2024/01/15 04:28:10;;;;;;;21.67;8.25;;;-2.10;99.90;;;;;;5032895;28;20036;-76
2024/01/15 04:30:36;;;;;;;17.92;7.68;;;-2.00;99.90;;;;;;5033865;28;20579;-75
2024/01/15 04:33:01;;;;;;;20.92;8.32;;;-1.90;99.90;;;;;;5040869;28;20122;-75
2024/01/15 04:35:27;;;;;;;17.30;7.30;;;-1.70;99.90;;;;;;5042982;28;20017;-75
2024/01/15 04:37:53;;;;;;;17.45;7.38;;;-1.60;99.90;;;;;;5041956;28;20375;-75
2024/01/15 04:40:19;;;;;;;25.17;9.23;;;-1.60;99.90;;;;;;5032516;28;20037;-75
2024/01/15 04:42:45;;;;;;;19.15;7.85;;;-1.60;99.90;;;;;;5030538;28;20026;-75
2024/01/15 04:45:12;;;;;;;23.42;8.85;;;-1.50;99.90;;;;;;5063173;28;20095;-75
2024/01/15 04:47:39;;;;;;;21.60;8.25;;;-1.40;99.90;;;;;;5036507;28;20044;-75
2024/01/15 04:50:05;;;;;;;18.35;8.07;;;;;;;;;;5036711;28;20095;-75
2024/01/15 04:52:31;;;;;;;19.30;8.15;;;;;;;;;;5044235;28;20405;-75
2024/01/15 04:54:58;;;;;;;22.38;7.82;;;;;;;;;;5044913;28;20029;-75
2024/01/15 04:57:25;;;;;;;18.63;7.47;;;-0.70;99.90;;;;;;5035882;28;20487;-75
2024/01/15 04:59:56;;;;;;;19.85;7.80;;;-0.60;99.90;;;;;;5037917;28;20032;-75
2024/01/15 05:02:23;;;;;;;20.00;7.82;;;-0.70;99.90;;;;;;5045862;28;20470;-75
2024/01/15 05:04:49;;;;;;;23.70;9.52;;;-0.60;99.90;;;;;;5042630;28;20108;-76
2024/01/15 05:07:14;;;;;;;21.92;8.68;;;-0.50;99.90;;;;;;5034301;28;20525;-76
2024/01/15 05:09:40;;;;;;;17.65;8.05;;;-0.50;99.90;;;;;;5046502;28;20523;-76
2024/01/15 05:12:06;;;;;;;19.88;7.78;;;-0.40;99.90;;;;;;5046127;28;20021;-76
2024/01/15 05:14:32;;;;;;;19.33;7.82;;;-0.30;99.90;;;;;;5032036;28;20047;-75
2024/01/15 05:16:57;;;;;;;22.45;9.02;;;-0.30;99.90;;;;;;5030442;28;20425;-75
2024/01/15 05:19:23;;;;;;;21.15;8.43;;;-0.30;99.90;;;;;;5042180;28;20029;-75
2024/01/15 05:21:48;;;;;;;20.70;9.15;;;-0.20;99.90;;;;;;5048864;28;20049;-76
2024/01/15 05:24:14;;;;;;;18.85;8.05;;;-0.30;99.90;;;;;;5039620;28;20505;-77
2024/01/15 05:26:40;;;;;;;17.33;7.95;;;-0.30;99.90;;;;;;5042669;28;20481;-76
2024/01/15 05:29:07;;;;;;;19.85;7.88;;;-0.30;99.90;;;;;;5059381;28;20037;-77
2024/01/15 05:31:33;;;;;;;21.42;7.63;;;-0.30;99.90;;;;;;5040273;28;20291;-76
2024/01/15 05:33:58;;;;;;;18.13;7.57;;;-0.20;99.90;;;;;;5046970;28;20093;-76
2024/01/15 05:36:24;;;;;;;21.77;7.28;;;-0.20;99.90;;;;;;5042326;28;20052;-76
2024/01/15 05:38:51;;;;;;;19.00;7.55;;;-0.20;99.90;;;;;;5034944;28;20029;-76
2024/01/15 05:41:16;;;;;;;19.15;7.75;;;-0.20;99.90;;;;;;5036399;28;20055;-76
2024/01/15 05:43:42;;;;;;;26.88;8.38;;;-0.20;99.90;;;;;;5043650;28;20064;-76
2024/01/15 05:46:08;;;;;;;18.55;7.38;;;-0.10;99.90;;;;;;5041863;28;20051;-76
2024/01/15 05:48:34;;;;;;;17.85;7.57;;;-0.10;99.90;;;;;;5046462;28;20025;-76
2024/01/15 05:51:02;;;;;;;17.13;7.35;;;-0.10;99.90;;;;;;5061177;28;20085;-76
2024/01/15 05:53:27;;;;;;;16.55;7.47;;;-0.10;99.90;;;;;;5072490;28;20021;-76
2024/01/15 05:55:55;;;;;;;17.48;8.35;;;-0.10;99.90;;;;;;5054501;28;20022;-75
2024/01/15 05:58:21;;;;;;;21.52;8.25;;;-0.10;99.90;;;;;;5043375;28;20722;-76
2024/01/15 06:00:47;;;;;;;17.23;7.15;;;-0.10;99.90;;;;;;5041536;28;20038;-76
2024/01/15 06:03:13;;;;;;;21.67;8.40;;;-0.10;99.90;;;;;;5034722;28;20055;-76
2024/01/15 06:05:39;;;;;;;22.10;7.68;;;-0.10;99.90;;;;;;5041081;28;20021;-77
2024/01/15 06:08:06;;;;;;;18.73;7.82;;;-0.10;99.90;;;;;;5042336;28;20048;-75
2024/01/15 06:10:32;;;;;;;20.50;7.47;;;-0.10;99.90;;;;;;5035798;28;20281;-74
2024/01/15 06:12:58;;;;;;;20.00;8.52;;;-0.20;99.90;;;;;;5029695;28;20099;-76
2024/01/15 06:15:24;;;;;;;22.85;8.82;;;-0.20;99.90;;;;;;5042159;28;20475;-74
2024/01/15 06:17:49;;;;;;;19.58;8.32;;;-0.20;99.90;;;;;;5037354;28;20358;-75
2024/01/15 06:20:15;;;;;;;18.05;7.60;;;-0.20;99.90;;;;;;5042622;28;20021;-75
2024/01/15 06:22:41;;;;;;;19.65;7.95;;;-0.10;99.90;;;;;;5048632;28;20041;-74
2024/01/15 06:25:09;;;;;;;18.98;8.05;;;-0.10;99.90;;;;;;5044078;28;20036;-74
2024/01/15 06:27:34;;;;;;;17.90;7.68;;;-0.10;99.90;;;;;;5043287;28;20821;-74
2024/01/15 06:30:00;;;;;;;15.23;7.25;;;-0.10;99.90;;;;;;5038659;28;20053;-74
2024/01/15 06:32:30;;;;;;;18.55;7.50;;;-0.10;99.90;;;;;;5046166;28;20107;-75
2024/01/15 06:34:56;;;;;;;15.13;7.07;;;-0.10;99.90;;;;;;5049212;28;20023;-75
2024/01/15 06:37:22;;;;;;;17.45;7.18;;;-0.10;99.90;;;;;;5039444;28;20381;-75
2024/01/15 06:39:47;;;;;;;17.10;7.68;;;-0.10;99.90;;;;;;5050245;28;20569;-75
2024/01/15 06:42:13;;;;;;;19.88;8.63;;;-0.10;99.90;;;;;;5046010;28;20109;-75
2024/01/15 06:44:39;;;;;;;23.30;9.52;;;-0.10;99.90;;;;;;5044904;28;20029;-78
2024/01/15 06:47:05;;;;;;;18.67;8.13;;;-0.10;99.90;;;;;;5037167;28;20113;-75
2024/01/15 06:49:31;;;;;;;20.02;9.23;;;-0.10;99.90;;;;;;5048538;28;20129;-77
2024/01/15 06:51:56;;;;;;;20.55;7.78;;;-0.10;99.90;;;;;;5041630;28;20044;-78
2024/01/15 06:54:23;;;;;;;17.92;7.47;;;-0.10;99.90;;;;;;5044200;28;20048;-77
2024/01/15 06:56:49;;;;;;;19.80;7.95;;;0.00;99.90;;;;;;5048491;28;20037;-76
2024/01/15 06:59:15;;;;;;;20.98;8.63;;;-0.10;99.90;;;;;;5039880;28;20112;-75
2024/01/15 07:01:41;;;;;;;19.95;7.22;;;-0.10;99.90;;;;;;5048124;28;20036;-75
2024/01/15 07:04:08;;;;;;;17.10;7.13;;;-0.20;99.90;;;;;;5048969;28;20402;-74
2024/01/15 07:06:33;;;;;;;17.38;6.82;;;-0.10;99.90;;;;;;5048431;28;20452;-75
2024/01/15 07:09:00;;;;;;;19.35;7.65;;;0.00;99.90;;;;;;5048685;28;20029;-74
2024/01/15 07:11:25;;;;;;;20.02;7.95;;;-0.10;99.90;;;;;;5048286;28;20089;-74
2024/01/15 07:13:51;;;;;;;16.75;7.28;;;-0.10;99.90;;;;;;5048873;28;20104;-76
2024/01/15 07:16:17;;;;;;;12.73;6.68;;;-0.10;99.90;;;;;;5029811;28;20049;-76
2024/01/15 07:18:42;;;;;;;14.55;7.60;;;-0.10;99.90;;;;;;5037420;28;20033;-76
2024/01/15 07:21:10;;;;;;;13.27;7.03;;;0.00;99.90;;;;;;5047213;28;20171;-75
2024/01/15 07:23:35;;;;;;;14.38;6.63;;;-0.10;99.90;;;;;;5046816;28;20045;-76
2024/01/15 07:26:01;;;;;;;16.80;7.50;;;-0.10;99.90;;;;;;5050647;28;20116;-75
2024/01/15 07:28:29;;;;;;;15.25;6.95;;;0.00;99.90;;;;;;5045990;28;20025;-75
2024/01/15 07:30:54;;;;;;;14.43;6.60;;;0.00;99.90;;;;;;5049070;28;20462;-76
2024/01/15 07:33:20;;;;;;;19.40;7.93;;;0.00;99.90;;;;;;5044894;28;20021;-76
2024/01/15 07:35:46;;;;;;;14.30;6.85;;;0.00;99.90;;;;;;5044414;28;20032;-78
2024/01/15 07:38:13;;;;;;;14.88;7.05;;;0.00;99.90;;;;;;5040716;28;20029;-77
2024/01/15 07:40:38;;;;;;;16.88;7.22;;;0.10;99.90;;;;;;5031856;28;20402;-78
2024/01/15 07:43:04;;;;;;;19.13;6.85;;;0.10;99.90;;;;;;5046095;28;20044;-76
2024/01/15 07:45:36;;;;;;;13.85;6.85;;;0.10;99.90;;;;;;5042266;28;20025;-76
2024/01/15 07:48:03;;;;;;;16.70;6.90;;;0.10;99.90;;;;;;5002279;28;20141;-77
2024/01/15 07:50:31;;;;;;;17.23;6.93;;;0.10;99.90;;;;;;5059239;28;20027;-77
2024/01/15 07:52:56;;;;;;;16.33;6.93;;;0.10;99.90;;;;;;5064656;28;20029;-77
2024/01/15 07:55:22;;;;;;;13.75;5.78;;;0.20;99.90;;;;;;5046877;28;20090;-76
2024/01/15 07:57:48;;;;;;;16.35;7.07;;;0.20;99.90;;;;;;5030465;28;20501;-77
2024/01/15 08:00:14;;;;;;;15.63;6.95;;;0.20;99.90;;;;;;5038234;28;20032;-77
2024/01/15 08:02:40;;;;;;;13.88;6.80;;;0.20;99.90;;;;;;5043120;28;20174;-78
2024/01/15 08:05:06;;;;;;;19.75;6.75;;;0.20;99.90;;;;;;5049809;28;20053;-77
2024/01/15 08:07:34;;;;;;;16.42;6.53;;;0.30;99.90;;;;;;5047075;28;20389;-78
2024/01/15 08:09:59;;;;;;;17.02;5.97;;;0.30;99.90;;;;;;5051160;28;20032;-77
2024/01/15 08:12:25;;;;;;;16.13;6.45;;;0.30;99.90;;;;;;5041468;28;20021;-76
2024/01/15 08:14:51;;;;;;;19.98;7.20;;;0.40;99.90;;;;;;5048399;28;20527;-76
2024/01/15 08:17:16;;;;;;;17.67;7.43;;;0.40;99.90;;;;;;5046760;28;20032;-76
2024/01/15 08:19:42;;;;;;;20.60;7.25;;;0.30;99.90;;;;;;5046546;28;20021;-76
2024/01/15 08:22:08;;;;;;;14.23;6.50;;;0.40;99.90;;;;;;5046812;28;20094;-77
2024/01/15 08:24:34;;;;;;;19.00;7.88;;;0.40;99.90;;;;;;5041326;28;20371;-73
2024/01/15 08:26:59;;;;;;;18.40;8.20;;;0.40;99.90;;;;;;5036733;28;20049;-72
2024/01/15 08:29:25;;;;;;;14.63;6.45;;;0.40;99.90;;;;;;5041656;28;20044;-72
2024/01/15 08:31:57;;;;;;;15.82;7.00;;;0.40;99.90;;;;;;5035899;28;20136;-72
2024/01/15 08:34:25;;;;;;;14.77;6.60;;;0.60;99.90;;;;;;5042028;28;20074;-71
2024/01/15 08:36:51;;;;;;;19.75;6.20;;;0.60;99.90;;;;;;5038921;28;20030;-73
2024/01/15 08:39:18;;;;;;;16.80;6.97;;;0.70;99.90;;;;;;5036301;28;20155;-72
2024/01/15 08:41:43;;;;;;;16.73;6.00;;;0.60;99.90;;;;;;5030946;28;20436;-74
2024/01/15 08:44:09;;;;;;;22.40;6.50;;;0.70;99.90;;;;;;5041798;28;20104;-72
2024/01/15 08:46:34;;;;;;;15.98;6.47;;;0.70;99.90;;;;;;5031526;28;20025;-73
2024/01/15 08:49:00;;;;;;;13.60;6.05;;;0.80;99.90;;;;;;5028869;28;20029;-72
2024/01/15 08:51:27;;;;;;;13.65;5.88;;;0.80;99.90;;;;;;5043092;28;20025;-72
2024/01/15 08:53:52;;;;;;;13.10;6.03;;;0.90;99.90;;;;;;5040139;28;20032;-72
2024/01/15 08:56:18;;;;;;;14.70;6.45;;;1.00;99.90;;;;;;5036392;28;20033;-73
2024/01/15 08:58:45;;;;;;;15.77;6.30;;;1.00;99.90;;;;;;5047621;28;20039;-73
2024/01/15 09:01:11;;;;;;;10.98;5.38;;;1.10;99.90;;;;;;5047024;28;20025;-73
2024/01/15 09:03:37;;;;;;;16.70;6.20;;;1.10;99.90;;;;;;5048842;28;20084;-73
2024/01/15 09:06:03;;;;;;;14.80;5.90;;;1.10;99.90;;;;;;5043760;28;20433;-73
2024/01/15 09:08:28;;;;;;;14.93;5.95;;;0.90;99.90;;;;;;5044640;28;20083;-73
2024/01/15 09:10:54;;;;;;;13.68;5.78;;;1.20;99.90;;;;;;5046381;28;20028;-72
2024/01/15 09:13:20;;;;;;;12.32;5.53;;;1.10;99.90;;;;;;5039302;28;20070;-72
2024/01/15 09:15:45;;;;;;;14.65;5.22;;;1.10;99.90;;;;;;5051860;28;20025;-72
2024/01/15 09:18:11;;;;;;;11.30;5.30;;;;;;;;;;5045251;28;20025;-73
2024/01/15 09:20:38;;;;;;;10.65;5.20;;;1.20;99.90;;;;;;5045812;28;20025;-73
2024/01/15 09:23:04;;;;;;;11.25;4.88;;;1.30;99.90;;;;;;5047561;28;20042;-73
2024/01/15 09:25:29;;;;;;;10.15;5.13;;;1.30;99.90;;;;;;5044637;28;20077;-73
2024/01/15 09:27:55;;;;;;;14.73;5.40;;;1.40;99.90;;;;;;5035438;28;20140;-73
2024/01/15 09:30:21;;;;;;;7.65;3.90;;;1.50;99.90;;;;;;5034867;28;20112;-73
2024/01/15 09:32:46;;;;;;;10.80;4.45;;;1.50;99.90;;;;;;5049899;28;20033;-74
2024/01/15 09:35:12;;;;;;;10.57;4.13;;;1.60;99.90;;;;;;5043328;28;20555;-73
2024/01/15 09:37:39;;;;;;;10.18;4.90;;;1.60;99.90;;;;;;5039973;28;20152;-72
2024/01/15 09:40:07;;;;;;;12.35;4.43;;;1.70;99.90;;;;;;5040907;28;20028;-73
2024/01/15 09:42:35;;;;;;;15.90;4.88;;;1.70;99.90;;;;;;5041158;28;20556;-74
2024/01/15 09:45:03;;;;;;;9.32;3.60;;;1.80;99.90;;;;;;5039254;28;20022;-73
2024/01/15 09:47:30;;;;;;;8.27;3.95;;;1.80;99.90;;;;;;5036711;28;20040;-73
2024/01/15 09:49:57;;;;;;;10.85;4.60;;;1.90;99.90;;;;;;5048623;28;20021;-73
2024/01/15 09:52:25;;;;;;;12.30;4.68;;;2.00;99.90;;;;;;5037033;28;20026;-73
2024/01/15 09:54:51;;;;;;;14.80;5.07;;;1.90;99.90;;;;;;5044450;28;20033;-74
2024/01/15 09:57:18;;;;;;;11.57;5.03;;;1.90;99.90;;;;;;5035146;28;20017;-73
2024/01/15 09:59:45;;;;;;;10.35;4.43;;;1.90;99.90;;;;;;5045472;28;20497;-73
2024/01/15 10:02:17;;;;;;;12.85;4.72;;;1.90;99.90;;;;;;5038059;28;20037;-73
2024/01/15 10:04:43;;;;;;;15.48;5.47;;;2.00;99.90;;;;;;5042148;28;20033;-73
2024/01/15 10:07:10;;;;;;;13.95;4.60;;;2.00;99.90;;;;;;5047187;28;20032;-73
2024/01/15 10:09:35;;;;;;;11.85;4.65;;;2.00;99.90;;;;;;5044731;28;20040;-73
2024/01/15 10:12:01;;;;;;;12.75;4.50;;;2.00;99.90;;;;;;5036684;28;20030;-73
2024/01/15 10:14:27;;;;;;;12.18;4.72;;;2.10;99.90;;;;;;5043317;28;20485;-73
2024/01/15 10:16:52;;;;;;;9.75;4.70;;;2.10;99.90;;;;;;5041912;28;20036;-73
2024/01/15 10:19:18;;;;;;;19.10;4.70;;;2.10;99.90;;;;;;5040219;28;20107;-73
2024/01/15 10:21:44;;;;;;;11.77;4.85;;;2.10;99.90;;;;;;5049413;28;20566;-73
2024/01/15 10:24:09;;;;;;;11.77;4.45;;;2.10;99.90;;;;;;5045512;28;20029;-72
2024/01/15 10:26:35;;;;;;;11.18;4.68;;;2.20;99.90;;;;;;5041170;28;20029;-73
2024/01/15 10:29:01;;;;;;;15.45;4.68;;;2.10;99.90;;;;;;5041455;28;20418;-73
2024/01/15 10:31:27;;;;;;;11.20;4.95;;;2.20;99.90;;;;;;5039924;28;20029;-73
2024/01/15 10:33:53;;;;;;;10.35;4.43;;;2.20;99.90;;;;;;5042153;28;20112;-73
2024/01/15 10:36:19;;;;;;;17.98;4.38;;;2.10;99.90;;;;;;5041401;28;20497;-73
2024/01/15 10:38:45;;;;;;;13.32;4.47;;;2.10;99.90;;;;;;5036617;28;20078;-73
2024/01/15 10:41:13;;;;;;;9.93;3.85;;;2.20;99.90;;;;;;5046276;28;20024;-73
2024/01/15 10:43:41;;;;;;;13.77;4.05;;;2.20;99.90;;;;;;5040005;28;20031;-73
2024/01/15 10:46:07;;;;;;;12.07;4.05;;;2.20;99.90;;;;;;5039181;28;20029;-73
2024/01/15 10:48:35;;;;;;;11.48;3.90;;;2.20;99.90;;;;;;5045643;28;20203;-73
2024/01/15 10:51:10;;;;;;;13.15;4.47;;;2.20;99.90;;;;;;5042279;28;20068;-73
2024/01/15 10:53:38;;;;;;;9.00;4.25;;;2.20;99.90;;;;;;5035270;28;20029;-73
2024/01/15 10:56:05;;;;;;;15.95;3.95;;;2.30;99.90;;;;;;5040556;28;20025;-73
2024/01/15 10:58:35;;;;;;;16.08;4.72;;;2.30;99.90;;;;;;5037777;28;20043;-74
2024/01/15 11:01:02;;;;;;;11.00;4.50;;;2.30;99.90;;;;;;5039080;28;20029;-73
2024/01/15 11:03:28;;;;;;;6.60;3.63;;;2.40;99.90;;;;;;5032104;28;20044;-74
2024/01/15 11:05:54;;;;;;;17.60;3.83;;;2.50;99.90;;;;;;5039574;28;20033;-73
2024/01/15 11:08:21;;;;;;;12.55;4.25;;;2.60;99.90;;;;;;5043763;28;20017;-72
2024/01/15 11:10:51;;;;;;;13.07;4.22;;;2.70;99.90;;;;;;5043005;28;20017;-74
2024/01/15 11:13:37;;;;;;;10.07;4.13;;;2.70;99.90;;;;;;5032818;28;20452;-73
2024/01/15 11:16:03;;;;;;;7.13;3.95;;;2.70;99.90;;;;;;5045722;28;20025;-73
2024/01/15 11:18:37;;;;;;;9.65;4.72;;;2.70;99.90;;;;;;5035428;28;20100;-78
2024/01/15 11:21:17;;;;;;;13.70;4.60;;;2.70;99.90;;;;;;5047779;28;20406;-80
2024/01/15 11:23:46;;;;;;;;;;;2.60;99.90;;;;;;5046340;28;20048;-80
2024/01/15 11:26:46;;;;;;;11.30;4.63;;;2.60;99.90;;;;;;5040264;28;19954;-79
2024/01/15 11:29:26;;;;;;;12.55;3.80;;;2.40;99.90;;;;;;5037281;28;20401;-78
2024/01/15 11:31:55;;;;;;;10.20;4.57;;;2.30;99.90;;;;;;5039097;28;20076;-81
2024/01/15 11:34:21;;;;;;;9.73;4.38;;;2.30;99.90;;;;;;5038658;28;20029;-79
2024/01/15 11:37:08;;;;;;;9.57;4.65;;;2.40;99.90;;;;;;5034546;28;20056;-78
2024/01/15 11:39:34;;;;;;;9.80;4.50;;;2.50;99.90;;;;;;5035175;28;20103;-77
2024/01/15 11:42:02;;;;;;;9.73;4.68;;;2.50;99.90;;;;;;5038577;28;20021;-76
2024/01/15 11:44:28;;;;;;;12.27;4.82;;;2.50;99.90;;;;;;5040650;28;20021;-76
2024/01/15 11:47:05;;;;;;;11.13;5.03;;;2.50;99.90;;;;;;5035960;28;20033;-81
2024/01/15 11:50:05;;;;;;;11.57;4.75;;;2.40;99.90;;;;;;5033652;28;20398;-81
2024/01/15 11:52:39;;;;;;;9.82;5.00;;;2.30;99.90;;;;;;5036383;28;20033;-77
2024/01/15 11:55:30;;;;;;;12.90;5.00;;;2.10;99.90;;;;;;5034699;28;20037;-77
2024/01/15 11:57:58;;;;;;;10.85;5.18;;;1.90;99.90;;;;;;5033653;28;20548;-77
2024/01/15 12:00:24;;;;;;;12.82;6.30;;;1.70;99.90;;;;;;5035991;28;20052;-77
2024/01/15 12:02:50;;;;;;;13.43;5.63;;;1.70;99.90;;;;;;5043716;28;20022;-78
2024/01/15 12:05:19;;;;;;;11.30;4.88;;;1.60;99.90;;;;;;5056417;28;20033;-79
2024/01/15 12:07:47;;;;;;;13.32;5.63;;;1.50;99.90;;;;;;5052018;28;20035;-76
2024/01/15 12:10:21;;;;;;;9.82;5.20;;;1.50;99.90;;;;;;5055510;28;20059;-76
2024/01/15 12:13:17;;;;;;;10.52;5.03;;;1.60;99.90;;;;;;5050047;28;20043;-79
2024/01/15 12:15:43;;;;;;;11.80;5.32;;;1.70;99.90;;;;;;4980945;28;20034;-77
2024/01/15 12:18:11;;;;;;;9.68;5.22;;;1.80;99.90;;;;;;4970974;28;20443;-75
2024/01/15 12:20:37;;;;;;;12.15;5.47;;;1.80;99.90;;;;;;4985698;28;20034;-75
2024/01/15 12:23:05;;;;;;;10.68;5.32;;;1.90;99.90;;;;;;4984696;28;20038;-76
2024/01/15 12:25:33;;;;;;;14.68;5.07;;;1.80;99.90;;;;;;4980647;28;20140;-76
2024/01/15 12:28:01;;;;;;;10.85;5.82;;;1.70;99.90;;;;;;4985820;28;20035;-76
2024/01/15 12:30:28;;;;;;;15.10;5.57;;;1.60;99.90;;;;;;4956410;28;20030;-75
2024/01/15 12:32:53;;;;;;;12.70;5.78;;;1.50;99.90;;;;;;4982244;28;20042;-75
2024/01/15 12:35:19;;;;;;;11.30;5.50;;;1.40;99.90;;;;;;4982910;28;20022;-75
2024/01/15 12:37:47;;;;;;;10.25;5.50;;;1.30;99.90;;;;;;4990951;28;20089;-74
2024/01/15 12:40:20;;;;;;;10.85;5.88;;;1.20;99.90;;;;;;4964279;28;20066;-74